createdAt,value
2023-03-19T00:04:54.184Z,99820.47
2023-03-19T00:09:55.598Z,99830.06
2023-03-19T00:14:56.985Z,99829.00
2023-03-19T00:19:58.370Z,99826.75
2023-03-19T00:24:59.805Z,99836.53
2023-03-19T00:30:02.432Z,99833.06
2023-03-19T00:35:06.198Z,99827.34
2023-03-19T00:40:08.396Z,99826.84
2023-03-19T00:45:10.697Z,99821.63
2023-03-19T00:50:12.231Z,99815.00
2023-03-19T00:55:14.018Z,99824.78
2023-03-19T01:00:18.883Z,99830.06
2023-03-19T01:05:20.264Z,99838.59
2023-03-19T01:10:22.594Z,99835.53
2023-03-19T01:15:24.002Z,99820.63
2023-03-19T01:20:25.387Z,99818.16
2023-03-19T01:25:26.935Z,99809.19
2023-03-19T01:30:28.367Z,99819.97
2023-03-19T01:35:30.120Z,99815.91
2023-03-19T01:40:32.753Z,99802.16
2023-03-19T01:45:36.339Z,99805.41
2023-03-19T01:50:41.881Z,99809.19
2023-03-19T01:55:43.282Z,99812.03
2023-03-19T02:00:44.721Z,99811.78
2023-03-19T02:05:46.431Z,99821.63
2023-03-19T02:10:48.094Z,99812.75
2023-03-19T02:15:50.803Z,99813.03
2023-03-19T02:20:59.296Z,99807.88
2023-03-19T02:26:02.488Z,99807.72
2023-03-19T02:31:03.918Z,99805.47
2023-03-19T02:36:06.967Z,99794.72
2023-03-19T02:41:08.485Z,99806.47
2023-03-19T02:46:12.037Z,99813.94
2023-03-19T02:51:13.560Z,99814.50
2023-03-19T02:56:15.258Z,99813.66
2023-03-19T03:01:17.561Z,99802.31
2023-03-19T03:06:19.023Z,99811.34
2023-03-19T03:11:20.398Z,99821.53
2023-03-19T03:16:22.629Z,99834.97
2023-03-19T03:21:24.072Z,99843.50
2023-03-19T03:26:25.512Z,99843.16
2023-03-19T03:31:27.004Z,99840.00
2023-03-19T03:36:28.718Z,99842.88
2023-03-19T03:41:30.204Z,99838.38
2023-03-19T03:46:31.605Z,99831.81
2023-03-19T03:51:33.007Z,99837.44
2023-03-19T03:56:34.467Z,99847.44
2023-03-19T04:01:36.131Z,99841.97
2023-03-19T04:06:37.500Z,99839.44
2023-03-19T04:11:39.505Z,99839.66
2023-03-19T04:16:41.194Z,99839.66
2023-03-19T04:21:42.772Z,99832.47
2023-03-19T04:26:44.232Z,99820.13
2023-03-19T04:31:45.780Z,99823.28
2023-03-19T04:36:47.228Z,99819.47
2023-03-19T04:41:48.982Z,99828.09
2023-03-19T04:46:50.465Z,99825.00
2023-03-19T04:51:51.830Z,99836.03
2023-03-19T04:56:53.529Z,99828.44
2023-03-19T05:01:54.934Z,99831.56
2023-03-19T05:06:57.255Z,99829.56
2023-03-19T05:11:58.641Z,99839.59
2023-03-19T05:17:00.499Z,99845.06
2023-03-19T05:22:01.889Z,99836.63
2023-03-19T05:27:03.374Z,99842.41
2023-03-19T05:32:05.057Z,99841.00
2023-03-19T05:37:06.440Z,99838.75
2023-03-19T05:42:07.845Z,99846.72
2023-03-19T05:47:10.785Z,99848.13
2023-03-19T05:52:12.267Z,99849.03
2023-03-19T05:57:14.071Z,99853.94
2023-03-19T06:02:15.787Z,99866.19
2023-03-19T06:07:17.184Z,99862.03
2023-03-19T06:12:18.638Z,99870.00
2023-03-19T06:17:21.255Z,99877.19
2023-03-19T06:22:22.642Z,99861.28
2023-03-19T06:27:24.038Z,99861.22
2023-03-19T06:32:25.583Z,99862.50
2023-03-19T06:37:26.953Z,99861.53
2023-03-19T06:42:28.352Z,99868.16
2023-03-19T06:47:29.765Z,99876.38
2023-03-19T06:52:31.225Z,99864.19
2023-03-19T06:57:32.650Z,99871.66
2023-03-19T07:02:34.083Z,99877.13
2023-03-19T07:07:35.683Z,99886.22
2023-03-19T07:12:37.267Z,99894.44
2023-03-19T07:17:38.653Z,99889.47
2023-03-19T07:22:40.342Z,99900.28
2023-03-19T07:27:41.761Z,99905.25
2023-03-19T07:32:43.791Z,99900.69
2023-03-19T07:37:45.274Z,99899.41
2023-03-19T07:42:46.683Z,99893.59
2023-03-19T07:47:50.447Z,99895.06
2023-03-19T07:52:51.939Z,99904.19
2023-03-19T07:57:53.330Z,99888.69
2023-03-19T08:02:54.728Z,99887.16
2023-03-19T08:07:56.131Z,99891.44
2023-03-19T08:12:57.603Z,99900.38
2023-03-19T08:18:03.642Z,99896.25
2023-03-19T08:23:05.086Z,99894.16
2023-03-19T08:28:07.075Z,99906.59
2023-03-19T08:33:08.704Z,99901.66
2023-03-19T08:38:10.994Z,99903.44
2023-03-19T08:43:12.399Z,99908.59
2023-03-19T08:48:13.791Z,99912.94
2023-03-19T08:53:15.361Z,99902.72
2023-03-19T08:58:16.754Z,99902.78
2023-03-19T09:03:18.175Z,99906.84
2023-03-19T09:08:19.559Z,99908.16
2023-03-19T09:13:21.008Z,99915.13
2023-03-19T09:18:25.255Z,99912.47
2023-03-19T09:23:26.707Z,99916.44
2023-03-19T09:28:28.129Z,99915.38
2023-03-19T09:33:29.508Z,99917.78
2023-03-19T09:38:31.085Z,99911.97
2023-03-19T09:43:59.284Z,99909.16
2023-03-19T09:49:22.356Z,99903.44
2023-03-19T09:54:36.497Z,99898.38
2023-03-19T09:59:37.894Z,99898.16
2023-03-19T10:04:42.539Z,99895.41
2023-03-19T10:09:46.650Z,99886.53
2023-03-19T10:15:04.251Z,99878.34
2023-03-19T10:20:45.193Z,99886.03
2023-03-19T10:25:46.694Z,99895.09
2023-03-19T10:30:57.740Z,99881.75
2023-03-19T10:36:05.577Z,99888.88
2023-03-19T10:41:28.206Z,99890.19
2023-03-19T10:46:39.371Z,99890.94
2023-03-19T10:51:43.683Z,99885.25
2023-03-19T10:56:46.118Z,99884.97
2023-03-19T11:01:47.506Z,99879.84
2023-03-19T11:06:50.054Z,99882.31
2023-03-19T11:11:53.962Z,99882.31
2023-03-19T11:16:57.346Z,99883.44
2023-03-19T11:22:05.341Z,99869.16
2023-03-19T11:27:07.448Z,99867.19
2023-03-19T11:32:22.058Z,99869.09
2023-03-19T11:37:54.817Z,99868.91
2023-03-19T11:43:25.369Z,99858.56
2023-03-19T11:48:32.435Z,99863.19
2023-03-19T11:54:11.639Z,99864.53
2023-03-19T11:59:28.426Z,99857.72
2023-03-19T12:04:54.015Z,99862.28
2023-03-19T12:09:57.107Z,99861.94
2023-03-19T12:15:23.438Z,99866.41
2023-03-19T12:21:15.513Z,99859.13
2023-03-19T12:26:40.323Z,99859.41
2023-03-19T12:31:51.304Z,99865.69
2023-03-19T12:37:06.947Z,99855.25
2023-03-19T12:42:08.378Z,99854.34
2023-03-19T12:47:13.026Z,99851.13
2023-03-19T12:52:26.607Z,99849.38
2023-03-19T12:57:37.934Z,99845.06
2023-03-19T13:02:50.264Z,99855.25
2023-03-19T13:08:11.839Z,99852.53
2023-03-19T13:13:28.596Z,99851.19
2023-03-19T13:18:44.199Z,99854.09
2023-03-19T13:23:45.637Z,99856.25
2023-03-19T13:29:01.448Z,99855.19
2023-03-19T13:34:05.047Z,99856.47
2023-03-19T13:39:13.270Z,99850.78
2023-03-19T13:44:40.648Z,99849.44
2023-03-19T13:50:05.505Z,99849.53
2023-03-19T13:55:25.484Z,99847.06
2023-03-19T14:00:47.024Z,99851.63
2023-03-19T14:05:48.803Z,99852.19
2023-03-19T14:10:57.872Z,99855.69
2023-03-19T14:16:15.960Z,99857.56
2023-03-19T14:21:38.785Z,99855.06
2023-03-19T14:26:41.973Z,99850.44
2023-03-19T14:31:53.815Z,99850.28
2023-03-19T14:37:17.207Z,99851.34
2023-03-19T14:42:50.257Z,99844.25
2023-03-19T14:48:22.953Z,99842.81
2023-03-19T14:53:27.231Z,99845.97
2023-03-19T14:58:28.610Z,99848.47
2023-03-19T15:03:39.346Z,99848.22
2023-03-19T15:08:40.790Z,99847.47
2023-03-19T15:13:58.475Z,99845.06
2023-03-19T15:18:59.869Z,99847.78
2023-03-19T15:24:01.251Z,99854.91
2023-03-19T15:29:04.231Z,99853.66
2023-03-19T15:34:22.573Z,99851.44
2023-03-19T15:39:24.868Z,99871.66
2023-03-19T15:44:31.503Z,99870.06
2023-03-19T15:49:36.472Z,99880.50
2023-03-19T15:54:37.880Z,99877.03
2023-03-19T15:59:39.280Z,99887.72
2023-03-19T16:05:06.714Z,99900.31
2023-03-19T16:10:40.141Z,99895.56
2023-03-19T16:15:45.718Z,99910.81
2023-03-19T16:21:09.208Z,99915.94
2023-03-19T16:26:19.277Z,99920.94
2023-03-19T16:31:22.808Z,99918.28
2023-03-19T16:36:26.785Z,99933.91
2023-03-19T16:41:34.063Z,99940.72
2023-03-19T16:46:35.475Z,99943.72
2023-03-19T16:51:36.896Z,99951.56
2023-03-19T16:56:38.305Z,99948.81
2023-03-19T17:01:39.727Z,99955.97
2023-03-19T17:06:41.115Z,99962.25
2023-03-19T17:11:42.830Z,99965.31
2023-03-19T17:16:48.336Z,99960.69
2023-03-19T17:21:52.295Z,99961.66
2023-03-19T17:26:54.008Z,99962.16
2023-03-19T17:31:55.832Z,99961.84
2023-03-19T17:36:59.339Z,99968.09
2023-03-19T17:42:00.794Z,99970.13
2023-03-19T17:47:02.210Z,99972.84
2023-03-19T17:52:03.684Z,99970.94
2023-03-19T17:57:05.229Z,99976.66
2023-03-19T18:02:27.420Z,99980.13
2023-03-19T18:07:28.801Z,99971.31
2023-03-19T18:12:30.246Z,99979.63
2023-03-19T18:17:31.662Z,99984.69
2023-03-19T18:22:33.054Z,99985.69
2023-03-19T18:27:34.552Z,99988.91
2023-03-19T18:32:36.048Z,99988.81
2023-03-19T18:37:37.462Z,99990.22
2023-03-19T18:42:38.837Z,99993.88
2023-03-19T18:47:40.679Z,99998.50
2023-03-19T18:52:42.563Z,99995.53
2023-03-19T18:57:53.463Z,100005.28
2023-03-19T19:02:55.459Z,100003.53
2023-03-19T19:07:57.646Z,100005.56
2023-03-19T19:12:59.045Z,100006.97
2023-03-19T19:18:00.678Z,100009.44
2023-03-19T19:23:02.561Z,100008.59
2023-03-19T19:28:14.380Z,100015.03
2023-03-19T19:33:19.616Z,100018.88
2023-03-19T19:38:21.011Z,100021.00
2023-03-19T19:43:24.141Z,100018.38
2023-03-19T19:48:27.257Z,100027.72
2023-03-19T19:53:29.580Z,100030.94
2023-03-19T19:58:31.885Z,100024.06
2023-03-19T20:03:33.489Z,100038.22
2023-03-19T20:08:35.141Z,100031.91
2023-03-19T20:13:37.643Z,100034.53
2023-03-19T20:18:43.284Z,100035.94
2023-03-19T20:23:44.870Z,100042.50
2023-03-19T20:28:46.356Z,100043.81
2023-03-19T20:33:47.727Z,100049.63
2023-03-19T20:38:49.176Z,100053.06
2023-03-19T20:43:50.758Z,100048.53
2023-03-19T20:48:52.176Z,100050.44
2023-03-19T20:53:53.607Z,100052.22
2023-03-19T20:58:55.142Z,100048.09
2023-03-19T21:03:57.044Z,100043.47
2023-03-19T21:09:00.176Z,100054.38
2023-03-19T21:14:01.877Z,100048.78
2023-03-19T21:19:03.322Z,100046.06
2023-03-19T21:24:15.410Z,100045.44
2023-03-19T21:29:22.891Z,100047.25
2023-03-19T21:34:24.298Z,100035.75
2023-03-19T21:39:25.681Z,100041.78
2023-03-19T21:44:29.507Z,100043.19
2023-03-19T21:49:31.050Z,100040.81
2023-03-19T21:54:32.439Z,100043.19
2023-03-19T21:59:33.871Z,100049.97
2023-03-19T22:04:35.314Z,100041.78
2023-03-19T22:09:37.216Z,100034.91
2023-03-19T22:14:40.059Z,100038.34
2023-03-19T22:19:41.923Z,100041.88
2023-03-19T22:24:43.356Z,100049.50
2023-03-19T22:29:45.060Z,100045.34
2023-03-19T22:34:46.431Z,100051.78
2023-03-19T22:39:47.806Z,100050.81
2023-03-19T22:44:49.192Z,100051.16
2023-03-19T22:49:50.996Z,100053.66
2023-03-19T22:54:53.586Z,100046.78
2023-03-19T22:59:54.981Z,100049.63
2023-03-19T23:04:56.349Z,100042.53
2023-03-19T23:09:57.726Z,100038.22
2023-03-19T23:14:59.095Z,100052.00
2023-03-19T23:20:01.013Z,100047.34
2023-03-19T23:25:02.457Z,100048.09
2023-03-19T23:30:04.613Z,100051.03
2023-03-19T23:35:15.519Z,100042.63
2023-03-19T23:40:17.817Z,100038.56
2023-03-19T23:45:31.266Z,100036.41
2023-03-19T23:50:32.856Z,100044.38
2023-03-19T23:55:34.528Z,100045.94
